MSC Celine — 3FID6 — position and weather

sailwx.info

Track history (hours):
 
Tides and Currents Weather Stations Pressure Air Temp Water Temp Dewpoint Dewpoint Depression Visibility Wind Speed Wind Dir Waves Ship Positions

MSC Celine

Last reported at 2017-Nov-18 04:13 UTC. Time now 2017-Nov-18 17:50 UTC.
Position N 40°26' E 029°05'.

Length 210 m; draft 9.2 m.

Type: Ship (hazmat cat A). MMSI: 373582000.

Date/timePositionNaut miles runAvg speedWind from/ knotsBaromVisibWave heightAir tempDewpointWater temp
2017-Nov-18 04:13N 40°26' E 029°05'0 1.0
2017-Nov-18 03:56N 40°26' E 029°05'4 1.9
2017-Nov-18 02:03N 40°26' E 029°00'0 0.3
2017-Nov-18 01:47N 40°26' E 029°00'0 0.4
2017-Nov-18 01:27N 40°26' E 029°00'0 0.1
2017-Nov-18 00:46N 40°26' E 029°00'0 0.2
2017-Nov-17 23:32N 40°26' E 029°00'0 0.5
2017-Nov-17 23:27N 40°26' E 029°00'0 0.2
2017-Nov-17 23:00N 40°26' E 029°00'0 0.2
2017-Nov-17 22:21N 40°26' E 029°00'0 0.2
2017-Nov-17 22:00N 40°26' E 029°00'0 0.3
2017-Nov-17 21:30N 40°26' E 029°00'0 0.3
2017-Nov-17 21:00N 40°26' E 029°01'0 0.4
2017-Nov-17 19:50N 40°26' E 029°01'0 0.6
2017-Nov-17 19:24N 40°26' E 029°01'29 1.7
2017-Nov-17 01:59N 40°51' E 028°42'18 0.7
2017-Nov-16 01:17N 40°45' E 029°04'412.2
2017-Nov-16 00:59N 40°45' E 029°09'611.8
2017-Nov-16 00:30N 40°45' E 029°17'4 0.5
2017-Nov-15 16:09N 40°43' E 029°22'1 6.1
2017-Nov-15 15:59N 40°43' E 029°20'510.3
2017-Nov-15 15:30N 40°43' E 029°14'612.5
2017-Nov-15 15:00N 40°43' E 029°05'  
2017-Nov-10 15:13N 44°25' E 037°23'312.0
2017-Nov-10 14:57N 44°27' E 037°27'511.7
2017-Nov-10 14:30N 44°29' E 037°33'611.5
2017-Nov-10 14:01N 44°32' E 037°40'511.0
2017-Nov-10 13:31N 44°35' E 037°46'510.5
2017-Nov-10 13:00N 44°39' E 037°51'4 8.7
2017-Nov-10 12:30N 44°43' E 037°48'1 1.6
2017-Nov-10 11:58N 44°44' E 037°47'0 0.0
2017-Nov-10 11:29N 44°44' E 037°47'0 0.0
2017-Nov-10 10:59N 44°44' E 037°47'0 0.0
2017-Nov-10 10:23N 44°44' E 037°47'0 0.0
2017-Nov-10 09:59N 44°44' E 037°47'0 0.0
2017-Nov-10 09:29N 44°44' E 037°47'0 0.0
2017-Nov-10 08:59N 44°44' E 037°47'0 0.0
2017-Nov-10 08:29N 44°44' E 037°47'0 0.0
2017-Nov-10 07:59N 44°44' E 037°47'0 0.0
2017-Nov-10 07:29N 44°44' E 037°47'0 0.0
2017-Nov-10 06:57N 44°44' E 037°47'0 0.0
2017-Nov-10 06:29N 44°44' E 037°47'0 0.0
2017-Nov-10 05:59N 44°44' E 037°47'0 0.0
2017-Nov-10 05:29N 44°44' E 037°47'0 0.0
2017-Nov-10 04:59N 44°44' E 037°47'0 0.0
2017-Nov-10 04:29N 44°44' E 037°47'0 0.0
2017-Nov-10 03:59N 44°44' E 037°47'0 0.0
2017-Nov-10 03:29N 44°44' E 037°47'0 0.0
2017-Nov-10 02:59N 44°44' E 037°47'0 0.0
2017-Nov-10 02:29N 44°44' E 037°47'0 0.0
2017-Nov-10 01:59N 44°44' E 037°47'0 0.0
2017-Nov-10 01:29N 44°44' E 037°47'0 0.0
2017-Nov-10 00:59N 44°44' E 037°47'0 0.0
2017-Nov-10 00:29N 44°44' E 037°47'0 0.0
2017-Nov-09 23:59N 44°44' E 037°47'0 0.0
2017-Nov-09 23:29N 44°44' E 037°47'0 0.0
2017-Nov-09 22:59N 44°44' E 037°47'0 0.0
2017-Nov-09 22:29N 44°44' E 037°47'0 0.0
2017-Nov-09 21:59N 44°44' E 037°47'0 0.0
2017-Nov-09 21:29N 44°44' E 037°47'0 0.0
2017-Nov-09 20:59N 44°44' E 037°47'0 0.0
2017-Nov-09 20:29N 44°44' E 037°47'0 0.0
2017-Nov-09 19:58N 44°44' E 037°47'0 0.0
2017-Nov-09 19:29N 44°44' E 037°47'0 0.0
2017-Nov-09 18:59N 44°44' E 037°47'0 0.0
2017-Nov-09 18:29N 44°44' E 037°47'0 0.0
2017-Nov-09 17:59N 44°44' E 037°47'0 0.0
2017-Nov-09 17:29N 44°44' E 037°47'0 0.0
2017-Nov-09 17:00N 44°44' E 037°47'0 0.0
2017-Nov-09 16:30N 44°44' E 037°47'0 0.0
2017-Nov-09 16:00N 44°44' E 037°47'0 0.0
2017-Nov-09 15:30N 44°44' E 037°47'0 0.0
2017-Nov-09 15:00N 44°44' E 037°47'0 0.0
2017-Nov-09 14:30N 44°44' E 037°47'0 0.0
2017-Nov-09 14:00N 44°44' E 037°47'0 0.0
2017-Nov-09 13:30N 44°44' E 037°47'0 0.0
2017-Nov-09 13:00N 44°44' E 037°47'0 0.0
2017-Nov-09 12:30N 44°44' E 037°47'0 0.0
2017-Nov-09 12:00N 44°44' E 037°47'0 0.0
2017-Nov-09 11:30N 44°44' E 037°47'0 0.0
2017-Nov-09 11:00N 44°44' E 037°47'0 0.0
2017-Nov-09 10:30N 44°44' E 037°47'0 0.0
2017-Nov-09 10:00N 44°44' E 037°47'0 0.0
2017-Nov-09 09:30N 44°44' E 037°47'0 0.0
2017-Nov-09 09:00N 44°44' E 037°47'0 0.0
2017-Nov-09 08:30N 44°44' E 037°47'0 0.0
2017-Nov-09 08:00N 44°44' E 037°47'0 0.0
2017-Nov-09 07:30N 44°44' E 037°47'0 0.0
2017-Nov-09 07:00N 44°44' E 037°47'0 0.0
2017-Nov-09 06:30N 44°44' E 037°47'0 0.0
2017-Nov-09 06:00N 44°44' E 037°47'0 0.0
2017-Nov-09 05:30N 44°44' E 037°47'0 0.0
2017-Nov-09 04:57N 44°44' E 037°47'0 1.0
2017-Nov-09 04:30N 44°43' E 037°47'3 5.9
2017-Nov-09 04:00N 44°41' E 037°50'4 8.3
2017-Nov-09 03:30N 44°37' E 037°52'4 8.3
2017-Nov-09 03:00N 44°33' E 037°52'3 6.7
2017-Nov-09 02:31N 44°31' E 037°48'510.6
2017-Nov-09 02:00N 44°29' E 037°41'5 9.8
2017-Nov-09 01:30N 44°27' E 037°35'1 2.1
2017-Nov-09 01:00N 44°26' E 037°34'1 1.1
2017-Nov-09 00:31N 44°26' E 037°35'1 1.1
2017-Nov-09 00:00N 44°26' E 037°35'1 1.0
2017-Nov-08 23:30N 44°26' E 037°36'0 0.9
2017-Nov-08 23:00N 44°26' E 037°37'0 0.8
2017-Nov-08 22:30N 44°27' E 037°37'0 0.7
2017-Nov-08 22:00N 44°27' E 037°38'0 0.6
2017-Nov-08 21:30N 44°27' E 037°38'0 0.6
2017-Nov-08 21:00N 44°26' E 037°39'2 3.0
2017-Nov-08 20:30N 44°26' E 037°37'510.2
2017-Nov-08 20:00N 44°25' E 037°29'  
Track history (hours):
 
Tides and Currents Weather Stations Pressure Air Temp Water Temp Dewpoint Dewpoint Depression Visibility Wind Speed Wind Dir Waves Ship Positions

MSC Celine

Last reported at 2017-Nov-18 04:13 UTC. Time now 2017-Nov-18 17:50 UTC.
Position N 40°26' E 029°05'.

Length 210 m; draft 9.2 m.

Type: Ship (hazmat cat A). MMSI: 373582000.

Date/timePositionNaut miles runAvg speedWind from/ knotsBaromVisibWave heightAir tempDewpointWater temp
2017-Nov-18 04:13N 40°26' E 029°05'0 1.0
2017-Nov-18 03:56N 40°26' E 029°05'4 1.9
2017-Nov-18 02:03N 40°26' E 029°00'0 0.3
2017-Nov-18 01:47N 40°26' E 029°00'0 0.4
2017-Nov-18 01:27N 40°26' E 029°00'0 0.1
2017-Nov-18 00:46N 40°26' E 029°00'0 0.2
2017-Nov-17 23:32N 40°26' E 029°00'0 0.5
2017-Nov-17 23:27N 40°26' E 029°00'0 0.2
2017-Nov-17 23:00N 40°26' E 029°00'0 0.2
2017-Nov-17 22:21N 40°26' E 029°00'0 0.2
2017-Nov-17 22:00N 40°26' E 029°00'0 0.3
2017-Nov-17 21:30N 40°26' E 029°00'0 0.3
2017-Nov-17 21:00N 40°26' E 029°01'0 0.4
2017-Nov-17 19:50N 40°26' E 029°01'0 0.6
2017-Nov-17 19:24N 40°26' E 029°01'29 1.7
2017-Nov-17 01:59N 40°51' E 028°42'18 0.7
2017-Nov-16 01:17N 40°45' E 029°04'412.2
2017-Nov-16 00:59N 40°45' E 029°09'611.8
2017-Nov-16 00:30N 40°45' E 029°17'4 0.5
2017-Nov-15 16:09N 40°43' E 029°22'1 6.1
2017-Nov-15 15:59N 40°43' E 029°20'510.3
2017-Nov-15 15:30N 40°43' E 029°14'612.5
2017-Nov-15 15:00N 40°43' E 029°05'  
2017-Nov-10 15:13N 44°25' E 037°23'312.0
2017-Nov-10 14:57N 44°27' E 037°27'511.7
2017-Nov-10 14:30N 44°29' E 037°33'611.5
2017-Nov-10 14:01N 44°32' E 037°40'511.0
2017-Nov-10 13:31N 44°35' E 037°46'510.5
2017-Nov-10 13:00N 44°39' E 037°51'4 8.7
2017-Nov-10 12:30N 44°43' E 037°48'1 1.6
2017-Nov-10 11:58N 44°44' E 037°47'0 0.0
2017-Nov-10 11:29N 44°44' E 037°47'0 0.0
2017-Nov-10 10:59N 44°44' E 037°47'0 0.0
2017-Nov-10 10:23N 44°44' E 037°47'0 0.0
2017-Nov-10 09:59N 44°44' E 037°47'0 0.0
2017-Nov-10 09:29N 44°44' E 037°47'0 0.0
2017-Nov-10 08:59N 44°44' E 037°47'0 0.0
2017-Nov-10 08:29N 44°44' E 037°47'0 0.0
2017-Nov-10 07:59N 44°44' E 037°47'0 0.0
2017-Nov-10 07:29N 44°44' E 037°47'0 0.0
2017-Nov-10 06:57N 44°44' E 037°47'0 0.0
2017-Nov-10 06:29N 44°44' E 037°47'0 0.0
2017-Nov-10 05:59N 44°44' E 037°47'0 0.0
2017-Nov-10 05:29N 44°44' E 037°47'0 0.0
2017-Nov-10 04:59N 44°44' E 037°47'0 0.0
2017-Nov-10 04:29N 44°44' E 037°47'0 0.0
2017-Nov-10 03:59N 44°44' E 037°47'0 0.0
2017-Nov-10 03:29N 44°44' E 037°47'0 0.0
2017-Nov-10 02:59N 44°44' E 037°47'0 0.0
2017-Nov-10 02:29N 44°44' E 037°47'0 0.0
2017-Nov-10 01:59N 44°44' E 037°47'0 0.0
2017-Nov-10 01:29N 44°44' E 037°47'0 0.0
2017-Nov-10 00:59N 44°44' E 037°47'0 0.0
2017-Nov-10 00:29N 44°44' E 037°47'0 0.0
2017-Nov-09 23:59N 44°44' E 037°47'0 0.0
2017-Nov-09 23:29N 44°44' E 037°47'0 0.0
2017-Nov-09 22:59N 44°44' E 037°47'0 0.0
2017-Nov-09 22:29N 44°44' E 037°47'0 0.0
2017-Nov-09 21:59N 44°44' E 037°47'0 0.0
2017-Nov-09 21:29N 44°44' E 037°47'0 0.0
2017-Nov-09 20:59N 44°44' E 037°47'0 0.0
2017-Nov-09 20:29N 44°44' E 037°47'0 0.0
2017-Nov-09 19:58N 44°44' E 037°47'0 0.0
2017-Nov-09 19:29N 44°44' E 037°47'0 0.0
2017-Nov-09 18:59N 44°44' E 037°47'0 0.0
2017-Nov-09 18:29N 44°44' E 037°47'0 0.0
2017-Nov-09 17:59N 44°44' E 037°47'0 0.0
2017-Nov-09 17:29N 44°44' E 037°47'0 0.0
2017-Nov-09 17:00N 44°44' E 037°47'0 0.0
2017-Nov-09 16:30N 44°44' E 037°47'0 0.0
2017-Nov-09 16:00N 44°44' E 037°47'0 0.0
2017-Nov-09 15:30N 44°44' E 037°47'0 0.0
2017-Nov-09 15:00N 44°44' E 037°47'0 0.0
2017-Nov-09 14:30N 44°44' E 037°47'0 0.0
2017-Nov-09 14:00N 44°44' E 037°47'0 0.0
2017-Nov-09 13:30N 44°44' E 037°47'0 0.0
2017-Nov-09 13:00N 44°44' E 037°47'0 0.0
2017-Nov-09 12:30N 44°44' E 037°47'0 0.0
2017-Nov-09 12:00N 44°44' E 037°47'0 0.0
2017-Nov-09 11:30N 44°44' E 037°47'0 0.0
2017-Nov-09 11:00N 44°44' E 037°47'0 0.0
2017-Nov-09 10:30N 44°44' E 037°47'0 0.0
2017-Nov-09 10:00N 44°44' E 037°47'0 0.0
2017-Nov-09 09:30N 44°44' E 037°47'0 0.0
2017-Nov-09 09:00N 44°44' E 037°47'0 0.0
2017-Nov-09 08:30N 44°44' E 037°47'0 0.0
2017-Nov-09 08:00N 44°44' E 037°47'0 0.0
2017-Nov-09 07:30N 44°44' E 037°47'0 0.0
2017-Nov-09 07:00N 44°44' E 037°47'0 0.0
2017-Nov-09 06:30N 44°44' E 037°47'0 0.0
2017-Nov-09 06:00N 44°44' E 037°47'0 0.0
2017-Nov-09 05:30N 44°44' E 037°47'0 0.0
2017-Nov-09 04:57N 44°44' E 037°47'0 1.0
2017-Nov-09 04:30N 44°43' E 037°47'3 5.9
2017-Nov-09 04:00N 44°41' E 037°50'4 8.3
2017-Nov-09 03:30N 44°37' E 037°52'4 8.3
2017-Nov-09 03:00N 44°33' E 037°52'3 6.7
2017-Nov-09 02:31N 44°31' E 037°48'510.6
2017-Nov-09 02:00N 44°29' E 037°41'5 9.8
2017-Nov-09 01:30N 44°27' E 037°35'1 2.1
2017-Nov-09 01:00N 44°26' E 037°34'1 1.1
2017-Nov-09 00:31N 44°26' E 037°35'1 1.1
2017-Nov-09 00:00N 44°26' E 037°35'1 1.0
2017-Nov-08 23:30N 44°26' E 037°36'0 0.9
2017-Nov-08 23:00N 44°26' E 037°37'0 0.8
2017-Nov-08 22:30N 44°27' E 037°37'0 0.7
2017-Nov-08 22:00N 44°27' E 037°38'0 0.6
2017-Nov-08 21:30N 44°27' E 037°38'0 0.6
2017-Nov-08 21:00N 44°26' E 037°39'2 3.0
2017-Nov-08 20:30N 44°26' E 037°37'510.2
2017-Nov-08 20:00N 44°25' E 037°29'  

Dump ship's entire track history